Time;durP1;ratioP1;P1;durP2;ratioP2;P2;SDS_P1;SDS_P2;PMS_P1;PMS_P2;Temp;Humidity;BMP_temperature;BMP_pressure;BME280_temperature;BME280_humidity;BME280_pressure;Samples;Min_cycle;Max_cycle;Signal;HPM_P1;HPM_P2
2022/10/04 00:01:50;;;;;;;8.97;3.40;;;11.50;99.90;;;;;;4974115;28;20240;-49
2022/10/04 00:04:23;;;;;;;8.33;3.37;;;11.50;99.90;;;;;;4976183;28;20689;-50
2022/10/04 00:06:58;;;;;;;7.97;3.60;;;11.50;99.90;;;;;;4975741;28;20581;-50
2022/10/04 00:09:32;;;;;;;6.83;2.87;;;11.50;99.90;;;;;;4975978;28;20614;-50
2022/10/04 00:12:01;;;;;;;9.90;3.20;;;11.50;99.90;;;;;;4975794;28;20240;-51
2022/10/04 00:14:32;;;;;;;6.13;2.70;;;11.50;99.90;;;;;;4975872;28;20247;-49
2022/10/04 00:17:10;;;;;;;8.03;2.90;;;11.50;99.90;;;;;;4975808;28;20238;-50
2022/10/04 00:19:44;;;;;;;6.77;3.33;;;11.60;99.90;;;;;;4975289;28;20233;-50
2022/10/04 00:22:16;;;;;;;8.90;3.07;;;11.50;99.90;;;;;;4968248;28;20815;-48
2022/10/04 00:25:21;;;;;;;7.67;2.90;;;11.50;99.90;;;;;;4975063;28;20813;-51
2022/10/04 00:28:26;;;;;;;6.83;2.97;;;11.50;99.90;;;;;;4975737;28;20221;-51
2022/10/04 00:31:13;;;;;;;4.20;2.13;;;11.40;99.90;;;;;;4968633;28;20296;-50
2022/10/04 00:33:43;;;;;;;6.63;3.00;;;11.40;99.90;;;;;;4975488;28;20232;-51
2022/10/04 00:36:30;;;;;;;5.47;2.93;;;11.50;99.90;;;;;;4975486;28;20241;-51
2022/10/04 00:39:31;;;;;;;5.50;2.50;;;11.50;99.90;;;;;;4975460;28;20633;-50
2022/10/04 00:42:09;;;;;;;6.20;2.70;;;11.40;99.90;;;;;;4951782;28;20250;-50
2022/10/04 00:44:44;;;;;;;8.53;2.33;;;11.40;99.90;;;;;;4975040;28;20613;-51
2022/10/04 00:47:30;;;;;;;7.97;2.93;;;11.40;99.90;;;;;;4975210;28;20719;-50
2022/10/04 00:50:08;;;;;;;6.60;2.37;;;11.40;99.90;;;;;;4979397;28;20331;-51
2022/10/04 00:52:41;;;;;;;5.60;2.33;;;11.40;99.90;;;;;;4974796;28;20240;-51
2022/10/04 00:55:22;;;;;;;5.60;2.33;;;11.50;99.90;;;;;;4975138;28;20243;-49
2022/10/04 00:57:53;;;;;;;7.63;2.63;;;11.50;99.90;;;;;;4974917;28;20232;-50
2022/10/04 01:00:22;;;;;;;5.20;2.27;;;11.50;99.90;;;;;;4974488;28;20224;-51
2022/10/04 01:02:56;;;;;;;6.30;2.90;;;11.50;99.90;;;;;;4974682;28;20233;-51
2022/10/04 01:05:28;;;;;;;6.80;2.13;;;11.50;99.90;;;;;;4974804;28;20583;-51
2022/10/04 01:08:04;;;;;;;7.07;2.10;;;11.50;99.90;;;;;;4973142;28;20583;-48
2022/10/04 01:10:40;;;;;;;7.03;2.07;;;11.50;99.90;;;;;;4974495;28;20231;-50
2022/10/04 01:13:13;;;;;;;5.37;2.00;;;11.50;99.90;;;;;;4974726;28;20707;-50
2022/10/04 01:15:45;;;;;;;6.77;2.13;;;11.50;99.90;;;;;;4972325;28;20227;-50
2022/10/04 01:18:16;;;;;;;7.17;2.10;;;11.50;99.90;;;;;;4976662;28;20233;-49
2022/10/04 01:20:54;;;;;;;7.10;1.93;;;11.50;99.90;;;;;;4977676;28;20282;-50
2022/10/04 01:23:35;;;;;;;9.27;2.20;;;11.40;99.90;;;;;;4974670;28;20229;-49
2022/10/04 01:26:05;;;;;;;6.20;1.90;;;11.40;99.90;;;;;;4974386;28;20235;-50
2022/10/04 01:28:34;;;;;;;5.60;2.13;;;11.40;99.90;;;;;;4974465;28;20697;-51
2022/10/04 01:31:02;;;;;;;4.33;1.90;;;11.40;99.90;;;;;;4974125;28;20284;-51
2022/10/04 01:33:30;;;;;;;6.67;2.10;;;11.40;99.90;;;;;;4974340;28;20657;-48
2022/10/04 01:35:58;;;;;;;4.43;2.00;;;11.40;99.90;;;;;;4974355;28;20254;-50
2022/10/04 01:38:26;;;;;;;7.60;2.23;;;11.40;99.90;;;;;;4974103;28;20275;-49
2022/10/04 01:40:59;;;;;;;4.63;1.97;;;11.40;99.90;;;;;;4974265;28;20224;-49
2022/10/04 01:43:32;;;;;;;4.93;1.67;;;11.40;99.90;;;;;;4961556;28;20234;-51
2022/10/04 01:46:05;;;;;;;5.00;1.97;;;11.40;99.90;;;;;;4970186;28;20230;-51
2022/10/04 01:48:36;;;;;;;4.57;1.73;;;11.40;99.90;;;;;;4972667;28;20235;-51
2022/10/04 01:51:08;;;;;;;6.23;2.07;;;11.40;99.90;;;;;;4970515;28;20250;-51
2022/10/04 01:53:44;;;;;;;8.23;2.57;;;11.40;99.90;;;;;;4954815;29;20631;-50
2022/10/04 01:56:17;;;;;;;4.73;1.87;;;11.50;99.90;;;;;;4964099;28;20222;-49
2022/10/04 01:58:49;;;;;;;5.43;2.10;;;11.50;99.90;;;;;;4974063;28;20348;-49
2022/10/04 02:01:22;;;;;;;5.97;2.03;;;11.50;99.90;;;;;;4973380;28;20477;-51
2022/10/04 02:03:57;;;;;;;4.60;1.87;;;11.50;99.90;;;;;;4973513;28;20230;-49
2022/10/04 02:06:26;;;;;;;7.70;1.90;;;11.50;99.90;;;;;;4973889;28;20696;-51
2022/10/04 02:08:56;;;;;;;5.50;1.83;;;11.50;99.90;;;;;;4974037;28;20287;-50
2022/10/04 02:11:30;;;;;;;4.67;1.97;;;11.50;99.90;;;;;;4973754;28;20233;-48
2022/10/04 02:13:59;;;;;;;6.77;2.03;;;11.40;99.90;;;;;;4959111;28;20238;-48
2022/10/04 02:16:27;;;;;;;4.07;2.03;;;11.40;99.90;;;;;;4961088;28;20229;-51
2022/10/04 02:18:56;;;;;;;6.63;2.20;;;11.40;99.90;;;;;;4983772;28;20225;-49
2022/10/04 02:21:24;;;;;;;6.17;2.00;;;11.40;99.90;;;;;;4977598;28;20234;-48
2022/10/04 02:23:53;;;;;;;6.13;2.20;;;11.40;99.90;;;;;;4977570;28;20221;-50
2022/10/04 02:26:21;;;;;;;7.10;2.07;;;11.40;99.90;;;;;;4977676;28;20217;-47
2022/10/04 02:28:51;;;;;;;5.60;2.00;;;11.40;99.90;;;;;;4977462;28;20244;-50
2022/10/04 02:34:08;;;;;;;4.83;2.17;;;11.40;99.90;;;;;;4977563;28;20230;-50
2022/10/04 02:36:38;;;;;;;5.87;2.23;;;11.40;99.90;;;;;;4977052;28;20228;-50
2022/10/04 02:39:15;;;;;;;5.37;1.90;;;11.30;99.90;;;;;;4976974;28;20233;-50
2022/10/04 02:41:46;;;;;;;5.97;1.90;;;11.30;99.90;;;;;;4977445;28;20233;-50
2022/10/04 02:44:20;;;;;;;9.00;2.07;;;11.30;99.90;;;;;;4977323;28;20716;-51
2022/10/04 02:46:53;;;;;;;7.40;2.33;;;11.30;99.90;;;;;;4977121;28;20229;-50
2022/10/04 02:49:30;;;;;;;6.30;2.27;;;11.30;99.90;;;;;;4976908;28;20323;-50
2022/10/04 02:52:04;;;;;;;4.77;2.27;;;11.30;99.90;;;;;;4977199;28;20231;-49
2022/10/04 02:54:39;;;;;;;3.90;2.03;;;11.30;99.90;;;;;;4977025;28;20237;-51
2022/10/04 02:57:15;;;;;;;5.53;2.53;;;11.30;99.90;;;;;;4977410;28;20240;-50
2022/10/04 02:59:45;;;;;;;6.37;2.47;;;11.30;99.90;;;;;;4977223;28;20629;-50
2022/10/04 03:02:25;;;;;;;4.77;2.90;;;11.30;99.90;;;;;;4976843;28;20236;-50
2022/10/04 03:05:04;;;;;;;6.87;2.90;;;11.30;99.90;;;;;;4977171;28;20218;-49
2022/10/04 03:07:34;;;;;;;5.23;2.57;;;11.40;99.90;;;;;;4973876;28;20294;-50
2022/10/04 03:10:07;;;;;;;5.07;2.50;;;11.40;99.90;;;;;;4974640;28;20832;-51
2022/10/04 03:12:37;;;;;;;6.27;3.00;;;11.40;99.90;;;;;;4976747;28;20225;-49
2022/10/04 03:15:09;;;;;;;4.47;2.57;;;11.30;99.90;;;;;;4976847;28;20258;-49
2022/10/04 03:17:39;;;;;;;7.50;3.10;;;11.30;99.90;;;;;;4976673;28;20636;-52
2022/10/04 03:20:11;;;;;;;9.80;3.10;;;11.30;99.90;;;;;;4977076;28;20229;-50
2022/10/04 03:22:40;;;;;;;6.97;3.07;;;11.30;99.90;;;;;;4976406;28;20236;-51
2022/10/04 03:25:18;;;;;;;5.60;3.20;;;11.40;99.90;;;;;;4976888;28;20731;-51
2022/10/04 03:27:47;;;;;;;7.23;3.40;;;11.40;99.90;;;;;;4976594;28;20274;-49
2022/10/04 03:30:19;;;;;;;7.87;3.43;;;11.40;99.90;;;;;;4975478;28;20229;-50
2022/10/04 03:32:48;;;;;;;12.40;3.80;;;11.40;99.90;;;;;;4976297;28;20233;-51
2022/10/04 03:35:26;;;;;;;7.07;3.80;;;11.40;99.90;;;;;;4976438;28;20240;-51
2022/10/04 03:37:57;;;;;;;6.37;3.57;;;11.40;99.90;;;;;;4976149;28;20231;-51
2022/10/04 03:40:29;;;;;;;6.53;3.37;;;11.30;99.90;;;;;;4958686;28;20229;-49
2022/10/04 03:42:59;;;;;;;8.43;3.70;;;11.40;99.90;;;;;;4957304;29;20713;-50
2022/10/04 03:45:29;;;;;;;5.83;3.93;;;11.40;99.90;;;;;;4956838;29;20225;-51
2022/10/04 03:48:04;;;;;;;6.30;4.03;;;11.40;99.90;;;;;;4974763;28;20303;-48
2022/10/04 03:50:37;;;;;;;7.23;3.93;;;11.30;99.90;;;;;;4970857;28;20754;-50
2022/10/04 03:53:11;;;;;;;5.53;4.00;;;11.30;99.90;;;;;;4975867;28;20233;-52
2022/10/04 03:55:42;;;;;;;6.80;4.20;;;11.30;99.90;;;;;;4975883;28;20238;-50
2022/10/04 03:58:12;;;;;;;7.77;4.30;;;11.30;99.90;;;;;;4976288;28;20284;-51
2022/10/04 04:00:46;;;;;;;9.20;4.53;;;11.30;99.90;;;;;;4974911;28;20233;-50
2022/10/04 04:03:19;;;;;;;7.80;3.97;;;11.30;99.90;;;;;;4975907;28;20235;-51
2022/10/04 04:05:52;;;;;;;6.97;4.20;;;11.30;99.90;;;;;;4976004;28;20236;-50
2022/10/04 04:08:28;;;;;;;7.13;4.43;;;11.30;99.90;;;;;;4976113;28;20222;-51
2022/10/04 04:10:58;;;;;;;10.07;4.70;;;11.30;99.90;;;;;;4976146;28;20742;-48
2022/10/04 04:13:31;;;;;;;8.10;4.57;;;11.30;99.90;;;;;;4976085;28;20245;-50
2022/10/04 04:16:02;;;;;;;7.17;4.23;;;11.30;99.90;;;;;;4976004;28;20711;-51
2022/10/04 04:18:34;;;;;;;7.93;4.57;;;11.30;99.90;;;;;;4975224;28;20235;-51
2022/10/04 04:21:05;;;;;;;9.73;5.27;;;11.30;99.90;;;;;;4975247;28;20224;-50
2022/10/04 04:23:36;;;;;;;9.30;4.70;;;11.30;99.90;;;;;;4975305;28;20243;-48
2022/10/04 04:26:18;;;;;;;9.47;4.63;;;11.30;99.90;;;;;;4975473;28;20265;-50
2022/10/04 04:28:50;;;;;;;6.33;4.43;;;11.30;99.90;;;;;;4975623;28;20244;-50
2022/10/04 04:31:23;;;;;;;7.47;4.73;;;11.30;99.90;;;;;;4975337;28;20248;-50
2022/10/04 04:33:59;;;;;;;7.07;4.37;;;11.30;99.90;;;;;;4974823;28;20259;-49
2022/10/04 04:36:28;;;;;;;8.07;4.80;;;11.30;99.90;;;;;;4975225;28;20282;-49
2022/10/04 04:41:53;;;;;;;7.93;4.30;;;11.30;99.90;;;;;;4975459;28;20229;-50
2022/10/04 04:44:28;;;;;;;11.63;5.23;;;11.30;99.90;;;;;;4975457;28;20232;-50
2022/10/04 04:46:59;;;;;;;10.07;5.20;;;11.40;99.90;;;;;;4975257;28;20691;-50
2022/10/04 04:49:30;;;;;;;10.10;5.53;;;11.40;99.90;;;;;;4974539;28;20243;-51
2022/10/04 04:51:58;;;;;;;8.53;5.13;;;11.30;99.90;;;;;;4974738;28;20222;-51
2022/10/04 04:54:27;;;;;;;7.10;4.50;;;11.30;99.90;;;;;;4974120;28;20632;-50
2022/10/04 04:56:56;;;;;;;9.70;5.20;;;11.30;99.90;;;;;;4973729;28;20229;-51
2022/10/04 04:59:27;;;;;;;9.87;4.97;;;11.30;99.90;;;;;;4975023;28;20569;-47
2022/10/04 05:01:55;;;;;;;8.03;4.90;;;11.30;99.90;;;;;;4960703;28;20712;-51
2022/10/04 05:04:25;;;;;;;7.67;5.03;;;11.30;99.90;;;;;;4955750;29;20297;-49
2022/10/04 05:07:05;;;;;;;9.60;4.50;;;11.30;99.90;;;;;;4955545;29;20232;-48
2022/10/04 05:09:35;;;;;;;13.43;5.50;;;11.40;99.90;;;;;;4955215;28;20236;-50
2022/10/04 05:12:08;;;;;;;6.93;5.00;;;11.40;99.90;;;;;;4955467;29;20689;-50
2022/10/04 05:14:39;;;;;;;8.40;5.83;;;11.40;99.90;;;;;;4957985;28;20230;-50
2022/10/04 05:17:08;;;;;;;9.73;5.00;;;11.40;99.90;;;;;;4972088;28;20227;-47
2022/10/04 05:19:39;;;;;;;7.47;4.90;;;11.40;99.90;;;;;;4973931;28;20219;-51
2022/10/04 05:22:10;;;;;;;7.70;5.17;;;11.40;99.90;;;;;;4974740;28;20679;-49
2022/10/04 05:24:41;;;;;;;9.43;5.03;;;11.40;99.90;;;;;;4974360;28;20725;-47
2022/10/04 05:27:16;;;;;;;7.87;4.70;;;11.40;99.90;;;;;;4966274;28;20228;-50
2022/10/04 05:29:57;;;;;;;7.90;5.10;;;11.30;99.90;;;;;;4972914;28;20247;-50
2022/10/04 05:32:33;;;;;;;7.07;5.07;;;11.30;99.90;;;;;;4972834;28;20236;-50
2022/10/04 05:35:02;;;;;;;8.07;5.30;;;11.30;99.90;;;;;;4974273;28;20234;-51
2022/10/04 05:37:52;;;;;;;10.03;5.67;;;11.30;99.90;;;;;;4974741;28;20237;-48
2022/10/04 05:40:35;;;;;;;11.63;6.67;;;11.30;99.90;;;;;;4972970;28;20225;-47
2022/10/04 05:43:21;;;;;;;11.10;6.17;;;11.40;99.90;;;;;;4973775;28;20721;-48
2022/10/04 05:46:13;;;;;;;13.40;6.90;;;11.40;99.90;;;;;;4974237;28;20284;-50
2022/10/04 05:48:43;;;;;;;12.83;6.63;;;11.40;99.90;;;;;;4973438;28;20367;-47
2022/10/04 05:51:19;;;;;;;12.23;6.57;;;11.40;99.90;;;;;;4972716;28;20230;-46
2022/10/04 05:53:48;;;;;;;12.60;6.70;;;11.30;99.90;;;;;;4972175;28;20683;-50
2022/10/04 05:56:45;;;;;;;10.13;6.60;;;11.30;99.90;;;;;;4968165;28;20233;-47
2022/10/04 05:59:26;;;;;;;11.83;6.53;;;11.40;99.90;;;;;;4969365;28;20231;-48
2022/10/04 06:02:03;;;;;;;12.87;6.53;;;11.30;99.90;;;;;;4971950;28;20252;-47
2022/10/04 06:04:44;;;;;;;11.93;6.93;;;11.30;99.90;;;;;;4973104;28;20372;-49
2022/10/04 06:07:24;;;;;;;13.27;6.67;;;11.30;99.90;;;;;;4973035;28;20762;-48
2022/10/04 06:10:05;;;;;;;9.43;6.83;;;11.30;99.90;;;;;;4969800;28;20631;-51
2022/10/04 06:12:44;;;;;;;11.80;6.70;;;11.30;99.90;;;;;;4967800;28;20225;-50
2022/10/04 06:15:28;;;;;;;13.07;7.40;;;11.30;99.90;;;;;;4960417;28;20234;-51
2022/10/04 06:18:13;;;;;;;9.07;6.70;;;11.40;99.90;;;;;;4973111;28;20233;-50
2022/10/04 06:21:02;;;;;;;10.27;7.17;;;11.50;99.90;;;;;;4969926;28;20634;-47
2022/10/04 06:23:36;;;;;;;11.60;7.67;;;11.50;99.90;;;;;;4968011;28;20566;-51
2022/10/04 06:26:11;;;;;;;14.73;7.57;;;11.60;99.90;;;;;;4967207;28;20236;-48
2022/10/04 06:28:42;;;;;;;11.87;8.70;;;11.70;99.90;;;;;;4973330;28;20286;-49
2022/10/04 06:31:45;;;;;;;13.03;8.40;;;11.80;99.90;;;;;;4968357;28;20242;-50
2022/10/04 06:34:50;;;;;;;15.00;9.97;;;12.00;99.90;;;;;;4970642;28;20242;-50
2022/10/04 06:37:34;;;;;;;13.20;8.77;;;12.10;99.90;;;;;;4925224;28;20228;-50
2022/10/04 06:40:37;;;;;;;10.73;7.40;;;12.20;99.90;;;;;;4973102;28;20237;-50
2022/10/04 06:43:31;;;;;;;12.17;8.47;;;12.20;99.90;;;;;;4972912;28;20224;-49
2022/10/04 06:46:08;;;;;;;12.23;8.43;;;12.10;99.90;;;;;;4973409;28;20713;-50
2022/10/04 06:48:53;;;;;;;10.77;8.23;;;12.00;99.90;;;;;;4973137;28;20241;-50
2022/10/04 06:51:40;;;;;;;14.17;8.30;;;12.00;99.90;;;;;;4967131;28;20225;-50
2022/10/04 06:54:26;;;;;;;13.37;9.13;;;12.10;99.90;;;;;;4972647;28;20569;-50
2022/10/04 06:57:22;;;;;;;11.67;8.27;;;12.20;99.90;;;;;;4971168;28;20593;-49
2022/10/04 07:00:05;;;;;;;12.97;8.43;;;12.30;99.90;;;;;;4969744;28;20241;-50
2022/10/04 07:02:39;;;;;;;13.03;9.27;;;12.50;99.90;;;;;;4973343;28;20247;-50
2022/10/04 07:05:18;;;;;;;13.17;8.57;;;12.70;99.90;;;;;;4976296;28;20232;-49
2022/10/04 07:08:05;;;;;;;13.60;8.80;;;12.90;99.90;;;;;;4976366;28;20693;-50
2022/10/04 07:10:37;;;;;;;10.90;9.07;;;13.10;99.90;;;;;;4975932;28;20232;-50
2022/10/04 07:13:21;;;;;;;11.80;8.30;;;13.20;99.90;;;;;;4971220;28;20237;-52
2022/10/04 07:15:59;;;;;;;15.47;8.23;;;13.30;99.90;;;;;;4973418;28;20708;-51
2022/10/04 07:18:31;;;;;;;12.33;7.97;;;13.50;99.90;;;;;;4970469;28;20228;-50
2022/10/04 07:21:05;;;;;;;12.17;8.43;;;13.50;99.90;;;;;;4976219;28;20240;-51
2022/10/04 07:23:38;;;;;;;11.27;8.53;;;13.70;99.90;;;;;;4974603;28;20231;-49
2022/10/04 07:26:19;;;;;;;12.57;8.23;;;13.80;99.90;;;;;;4973017;28;20225;-49
2022/10/04 07:31:37;;;;;;;12.80;7.10;;;14.20;99.90;;;;;;4968226;28;20657;-50
2022/10/04 07:34:11;;;;;;;15.63;7.47;;;14.30;99.90;;;;;;4974823;28;20237;-50
2022/10/04 07:36:45;;;;;;;13.13;8.00;;;14.40;99.90;;;;;;4971301;28;20233;-52
2022/10/04 07:39:16;;;;;;;12.10;7.80;;;14.60;99.90;;;;;;4975123;28;20230;-49
2022/10/04 07:41:50;;;;;;;11.60;7.50;;;14.70;99.90;;;;;;4972810;28;20605;-51
2022/10/04 07:44:31;;;;;;;10.20;7.47;;;14.90;99.90;;;;;;4974019;28;20226;-51
2022/10/04 07:47:03;;;;;;;12.80;7.00;;;15.00;99.90;;;;;;4974476;28;20233;-50
2022/10/04 07:49:38;;;;;;;12.97;7.63;;;14.90;99.90;;;;;;4975283;28;20238;-50
2022/10/04 07:52:24;;;;;;;12.10;7.97;;;14.80;99.90;;;;;;4970678;28;20312;-50
2022/10/04 07:55:00;;;;;;;12.83;8.47;;;14.70;99.90;;;;;;4966078;28;20234;-50
2022/10/04 07:57:37;;;;;;;16.17;7.97;;;14.80;99.90;;;;;;4972953;28;20233;-51
2022/10/04 08:00:15;;;;;;;15.07;8.13;;;15.10;99.90;;;;;;4975280;28;20233;-50
2022/10/04 08:02:56;;;;;;;14.57;7.80;;;15.20;99.90;;;;;;4974961;28;20237;-50
2022/10/04 08:05:29;;;;;;;13.40;8.03;;;15.40;99.90;;;;;;4971640;28;20241;-50
2022/10/04 08:08:15;;;;;;;12.43;7.03;;;15.70;99.90;;;;;;4974363;28;20629;-50
2022/10/04 08:10:56;;;;;;;13.63;7.17;;;15.90;99.90;;;;;;4974346;28;20269;-51
2022/10/04 08:13:33;;;;;;;15.47;6.47;;;16.20;99.90;;;;;;4973519;28;20231;-51
2022/10/04 08:16:10;;;;;;;12.77;6.83;;;16.40;99.90;;;;;;4973496;28;20214;-48
2022/10/04 08:18:47;;;;;;;11.43;6.23;;;16.80;99.90;;;;;;4970480;28;20230;-49
2022/10/04 08:21:22;;;;;;;14.73;6.97;;;16.90;99.90;;;;;;4968295;28;20234;-51
2022/10/04 08:24:07;;;;;;;9.67;6.40;;;16.80;99.90;;;;;;4971385;28;20255;-49
2022/10/04 08:26:49;;;;;;;12.03;6.83;;;16.70;99.90;;;;;;4974664;28;20229;-50
2022/10/04 08:29:41;;;;;;;16.50;7.67;;;16.60;99.90;;;;;;4975012;28;20222;-48
2022/10/04 08:32:22;;;;;;;11.50;6.50;;;16.40;99.90;;;;;;4970847;28;20598;-51
2022/10/04 08:35:15;;;;;;;11.03;6.90;;;16.40;99.90;;;;;;4974319;28;20236;-49
2022/10/04 08:37:54;;;;;;;14.37;6.83;;;16.30;99.90;;;;;;4974421;28;20312;-50
2022/10/04 08:41:10;;;;;;;16.37;7.30;;;16.30;99.90;;;;;;4973016;28;20586;-51
2022/10/04 08:44:11;;;;;;;11.17;7.10;;;16.10;99.90;;;;;;4971396;28;20225;-51
2022/10/04 08:47:14;;;;;;;13.50;7.03;;;16.10;99.90;;;;;;4971847;28;20249;-48
2022/10/04 08:50:22;;;;;;;14.53;6.83;;;16.10;99.90;;;;;;4971750;28;20285;-51
2022/10/04 08:53:17;;;;;;;14.00;7.17;;;16.10;99.90;;;;;;4973934;28;20621;-51
2022/10/04 08:56:05;;;;;;;13.30;6.70;;;15.90;99.90;;;;;;4973487;28;20219;-50
2022/10/04 08:59:05;;;;;;;17.63;7.70;;;15.90;99.90;;;;;;4974587;28;20289;-50
2022/10/04 09:01:55;;;;;;;11.30;7.10;;;16.00;99.90;;;;;;4960767;28;20239;-50
2022/10/04 09:04:56;;;;;;;13.77;6.67;;;16.00;99.90;;;;;;4955388;29;20818;-50
2022/10/04 09:07:57;;;;;;;18.23;7.03;;;16.00;99.90;;;;;;4943982;29;20621;-52
2022/10/04 09:11:04;;;;;;;12.13;6.50;;;16.10;99.90;;;;;;4951818;28;20699;-51
2022/10/04 09:13:42;;;;;;;13.17;6.90;;;16.10;99.90;;;;;;4943838;28;20783;-51
2022/10/04 09:16:16;;;;;;;13.83;6.73;;;16.10;99.90;;;;;;4952498;29;20227;-51
2022/10/04 09:19:02;;;;;;;11.23;6.07;;;16.20;99.90;;;;;;4954391;29;20227;-51
2022/10/04 09:21:49;;;;;;;10.43;5.90;;;16.40;99.90;;;;;;4951014;29;20699;-52
2022/10/04 09:25:05;;;;;;;14.77;6.23;;;16.40;99.90;;;;;;4950706;29;20560;-52
2022/10/04 09:27:50;;;;;;;14.17;6.60;;;16.40;99.90;;;;;;4953386;29;20242;-50
2022/10/04 09:30:29;;;;;;;12.33;5.80;;;16.50;99.90;;;;;;4949140;28;20224;-51
2022/10/04 09:33:25;;;;;;;9.73;5.57;;;16.80;99.90;;;;;;4973579;28;20351;-52
2022/10/04 09:36:15;;;;;;;13.10;5.67;;;17.00;99.90;;;;;;4973693;28;20238;-50
2022/10/04 09:39:10;;;;;;;9.70;5.90;;;16.90;99.90;;;;;;4973889;28;20231;-51
2022/10/04 09:42:24;;;;;;;9.03;5.53;;;16.90;99.90;;;;;;4972245;28;20236;-51
2022/10/04 09:45:10;;;;;;;9.93;5.27;;;16.80;99.90;;;;;;4968696;28;20219;-50
2022/10/04 09:47:44;;;;;;;9.20;4.83;;;16.70;99.90;;;;;;4970686;28;20305;-50
2022/10/04 09:50:55;;;;;;;12.13;5.20;;;16.80;99.90;;;;;;4971809;28;20245;-51
2022/10/04 09:53:39;;;;;;;9.90;5.33;;;16.80;99.90;;;;;;4967295;28;20234;-51
2022/10/04 09:56:44;;;;;;;10.17;5.10;;;16.90;99.90;;;;;;4973306;28;20338;-50
2022/10/04 09:59:53;;;;;;;10.60;5.33;;;17.10;99.90;;;;;;4973504;28;20313;-52
2022/10/04 10:03:07;;;;;;;13.33;5.30;;;17.20;99.90;;;;;;4973014;28;20230;-50
2022/10/04 10:06:23;;;;;;;12.70;5.27;;;17.20;99.90;;;;;;4969615;28;20746;-51
2022/10/04 10:09:06;;;;;;;8.80;4.80;;;17.00;99.90;;;;;;4973084;28;20224;-51
2022/10/04 10:15:03;;;;;;;9.30;5.00;;;16.80;99.90;;;;;;4967530;28;20214;-52
2022/10/04 10:17:40;;;;;;;8.30;4.60;;;17.50;99.90;;;;;;4972408;28;20618;-51
2022/10/04 10:20:39;;;;;;;8.97;4.63;;;18.00;99.90;;;;;;4973416;28;20585;-52
2022/10/04 10:23:28;;;;;;;9.17;4.47;;;18.30;99.90;;;;;;4973295;28;20218;-52
2022/10/04 10:26:21;;;;;;;11.47;4.50;;;18.80;99.90;;;;;;4972180;28;20234;-52
2022/10/04 10:29:19;;;;;;;10.07;4.50;;;19.20;99.90;;;;;;4971439;28;20238;-49
2022/10/04 10:32:10;;;;;;;8.37;3.40;;;19.20;99.90;;;;;;4970649;28;20239;-51
2022/10/04 10:35:11;;;;;;;13.53;4.07;;;19.40;99.90;;;;;;4970875;28;20227;-49
2022/10/04 10:37:52;;;;;;;8.77;3.77;;;19.40;99.90;;;;;;4960074;28;20226;-51
2022/10/04 10:40:39;;;;;;;10.23;3.83;;;19.20;99.90;;;;;;4975809;28;20283;-51
2022/10/04 10:43:22;;;;;;;9.23;4.07;;;19.10;99.90;;;;;;4976804;28;20627;-50
2022/10/04 10:46:14;;;;;;;9.87;4.00;;;18.80;99.90;;;;;;4976674;28;20227;-52
2022/10/04 10:49:04;;;;;;;10.20;3.83;;;18.80;99.90;;;;;;4975909;28;20301;-49
2022/10/04 10:52:10;;;;;;;14.83;3.77;;;18.80;99.90;;;;;;4973246;28;20223;-52
2022/10/04 10:54:59;;;;;;;8.83;3.40;;;18.90;99.90;;;;;;4975383;28;20224;-52
2022/10/04 10:57:56;;;;;;;11.23;3.30;;;19.30;99.90;;;;;;4976244;28;20228;-52
2022/10/04 11:00:34;;;;;;;10.73;3.73;;;19.70;99.90;;;;;;4974937;28;20224;-52
2022/10/04 11:03:37;;;;;;;9.10;2.90;;;20.00;99.90;;;;;;4976136;28;20691;-52
2022/10/04 11:06:19;;;;;;;9.77;3.07;;;20.30;99.90;;;;;;4976381;28;20236;-52
2022/10/04 11:09:31;;;;;;;9.27;3.30;;;20.50;99.90;;;;;;4975086;28;20232;-52
2022/10/04 11:12:43;;;;;;;7.90;3.10;;;20.60;99.90;;;;;;4974879;28;20251;-52
2022/10/04 11:15:39;;;;;;;7.20;3.20;;;20.10;99.90;;;;;;4973548;28;20236;-53
2022/10/04 11:18:49;;;;;;;8.07;3.33;;;19.70;99.90;;;;;;4976067;28;20233;-53
2022/10/04 11:21:55;;;;;;;10.53;3.60;;;19.50;99.90;;;;;;4975667;28;20316;-51
2022/10/04 11:25:03;;;;;;;8.77;3.27;;;19.30;99.90;;;;;;4974159;28;20699;-52
2022/10/04 11:27:43;;;;;;;8.37;3.00;;;19.10;99.90;;;;;;4969070;28;20224;-51
2022/10/04 11:30:24;;;;;;;9.47;3.37;;;19.00;99.90;;;;;;4975010;28;20711;-52
2022/10/04 11:33:32;;;;;;;7.13;3.50;;;19.10;99.90;;;;;;4973958;28;20286;-51
2022/10/04 11:36:19;;;;;;;9.63;3.27;;;19.30;99.90;;;;;;4975679;28;20254;-52
2022/10/04 11:39:10;;;;;;;11.73;3.97;;;19.60;99.90;;;;;;4974853;28;20234;-51
2022/10/04 11:41:53;;;;;;;8.70;3.90;;;19.60;99.90;;;;;;4969271;28;20231;-51
2022/10/04 11:45:04;;;;;;;12.30;4.37;;;19.30;99.90;;;;;;4972616;28;20225;-52
2022/10/04 11:47:44;;;;;;;8.90;4.27;;;19.10;99.90;;;;;;4973184;28;20693;-51
2022/10/04 11:50:27;;;;;;;9.57;4.10;;;19.10;99.90;;;;;;4974626;28;20734;-51
2022/10/04 11:53:33;;;;;;;8.80;4.40;;;18.80;99.90;;;;;;4973994;28;20224;-52
2022/10/04 11:56:21;;;;;;;10.03;4.30;;;18.90;99.90;;;;;;4975566;28;20227;-50
2022/10/04 11:59:10;;;;;;;8.93;3.93;;;18.90;99.90;;;;;;4974806;28;20576;-51
2022/10/04 12:02:09;;;;;;;8.23;3.77;;;19.10;99.90;;;;;;4970974;28;20562;-51
2022/10/04 12:05:03;;;;;;;8.63;3.57;;;19.10;99.90;;;;;;4972330;28;20231;-51
2022/10/04 12:07:48;;;;;;;6.53;3.13;;;19.10;99.90;;;;;;4975441;28;20246;-52
2022/10/04 12:10:27;;;;;;;8.53;3.20;;;19.20;99.90;;;;;;4972280;28;20232;-50
2022/10/04 12:13:31;;;;;;;6.37;2.90;;;19.10;99.90;;;;;;4974021;28;20222;-51
2022/10/04 12:16:22;;;;;;;4.53;2.40;;;19.00;99.90;;;;;;4975425;28;20227;-52
2022/10/04 12:19:14;;;;;;;5.13;2.60;;;19.00;99.90;;;;;;4968836;28;20235;-51
2022/10/04 12:21:57;;;;;;;7.20;2.80;;;18.90;99.90;;;;;;4972215;28;20782;-52
2022/10/04 12:24:51;;;;;;;6.23;2.40;;;19.00;99.90;;;;;;4981113;28;20311;-52
2022/10/04 12:27:51;;;;;;;8.47;2.70;;;19.00;99.90;;;;;;4970218;28;20784;-51
2022/10/04 12:30:30;;;;;;;5.53;2.30;;;19.10;99.90;;;;;;4973363;28;20707;-51
2022/10/04 12:33:09;;;;;;;9.30;2.73;;;19.00;99.90;;;;;;4973946;28;20222;-52
2022/10/04 12:36:05;;;;;;;7.03;2.87;;;19.00;99.90;;;;;;4974092;28;20232;-51
2022/10/04 12:39:04;;;;;;;9.73;2.83;;;19.00;99.90;;;;;;4973507;28;20318;-52
2022/10/04 12:41:45;;;;;;;4.83;2.60;;;19.00;99.90;;;;;;4969909;28;20254;-51
2022/10/04 12:44:28;;;;;;;7.73;2.97;;;18.90;99.90;;;;;;4975282;28;20786;-52
2022/10/04 12:47:15;;;;;;;7.50;3.00;;;18.80;99.90;;;;;;4972285;28;20241;-52
2022/10/04 12:49:55;;;;;;;6.37;2.80;;;18.80;99.90;;;;;;4978844;28;20252;-52
2022/10/04 12:52:26;;;;;;;5.60;2.70;;;18.80;99.90;;;;;;4967325;28;20247;-53
2022/10/04 12:55:02;;;;;;;6.87;3.27;;;18.80;99.90;;;;;;4974784;28;20225;-52
2022/10/04 12:57:44;;;;;;;8.30;3.10;;;18.70;99.90;;;;;;4973836;28;20230;-53
2022/10/04 13:00:19;;;;;;;5.67;2.60;;;18.70;99.90;;;;;;4972899;28;20227;-51
2022/10/04 13:03:18;;;;;;;6.43;3.10;;;18.70;99.90;;;;;;4972216;28;20238;-51
2022/10/04 13:06:01;;;;;;;8.00;3.40;;;18.60;99.90;;;;;;4969086;28;20231;-53
2022/10/04 13:08:57;;;;;;;6.13;3.00;;;18.60;99.90;;;;;;4971995;28;20233;-51
2022/10/04 13:11:48;;;;;;;9.00;4.03;;;18.60;99.90;;;;;;4972140;28;20640;-52
2022/10/04 13:14:34;;;;;;;6.00;3.03;;;18.60;99.90;;;;;;4973940;28;20231;-52
2022/10/04 13:17:14;;;;;;;9.40;3.40;;;18.60;99.90;;;;;;4970810;28;20262;-50
2022/10/04 13:20:28;;;;;;;6.23;3.30;;;18.60;99.90;;;;;;4986521;28;20233;-52
2022/10/04 13:23:04;;;;;;;7.03;3.13;;;18.50;99.90;;;;;;4961370;28;20292;-52
2022/10/04 13:26:09;;;;;;;8.90;3.23;;;18.40;99.90;;;;;;4973814;28;20720;-53
2022/10/04 13:28:47;;;;;;;6.80;3.10;;;18.40;99.90;;;;;;4969672;28;20302;-51
2022/10/04 13:31:24;;;;;;;7.13;3.70;;;18.50;99.90;;;;;;4973092;28;20230;-53
2022/10/04 13:34:05;;;;;;;9.10;3.83;;;18.40;99.90;;;;;;4971718;28;20252;-52
2022/10/04 13:36:50;;;;;;;8.17;3.20;;;18.30;99.90;;;;;;4988396;28;20234;-52
2022/10/04 13:39:33;;;;;;;8.00;3.80;;;18.30;99.90;;;;;;4966947;28;20232;-52
2022/10/04 13:42:16;;;;;;;6.00;3.07;;;18.30;99.90;;;;;;4973153;28;20262;-52
2022/10/04 13:45:00;;;;;;;8.97;2.93;;;18.20;99.90;;;;;;4973616;28;20226;-52
2022/10/04 13:47:45;;;;;;;6.97;2.90;;;18.20;99.90;;;;;;4977468;28;20237;-52
2022/10/04 13:50:33;;;;;;;6.13;3.10;;;18.20;99.90;;;;;;4973091;28;20250;-51
2022/10/04 13:56:38;;;;;;;5.37;3.03;;;18.20;99.90;;;;;;4934472;29;20599;-52
2022/10/04 13:59:21;;;;;;;8.32;3.38;;;18.20;99.90;;;;;;4984610;28;20451;-51
2022/10/04 14:02:20;;;;;;;9.43;3.40;;;18.10;99.90;;;;;;4973430;28;20241;-53
2022/10/04 14:05:17;;;;;;;6.07;3.50;;;18.10;99.90;;;;;;4973369;28;20719;-53
2022/10/04 14:08:02;;;;;;;6.93;3.37;;;18.00;99.90;;;;;;4971015;28;20226;-53
2022/10/04 14:10:51;;;;;;;6.63;3.53;;;18.10;99.90;;;;;;4972541;28;20233;-54
2022/10/04 14:13:49;;;;;;;6.80;3.50;;;18.00;99.90;;;;;;4972726;28;20219;-53